Time;durP1;ratioP1;P1;durP2;ratioP2;P2;SDS_P1;SDS_P2;PMS_P1;PMS_P2;Temp;Humidity;BMP_temperature;BMP_pressure;BME280_temperature;BME280_humidity;BME280_pressure;Samples;Min_cycle;Max_cycle;Signal;HPM_P1;HPM_P2
2021/12/23 00:00:09;;;;;;;26.30;14.63;;;0.40;99.90;;;;;;5072370;28;20017;-76
2021/12/23 00:02:35;;;;;;;31.23;15.75;;;0.30;99.90;;;;;;5075347;28;20103;-77
2021/12/23 00:05:01;;;;;;;26.63;14.95;;;0.40;99.90;;;;;;5113933;28;20111;-76
2021/12/23 00:07:26;;;;;;;28.80;15.68;;;0.40;99.90;;;;;;5113773;28;20016;-77
2021/12/23 00:10:05;;;;;;;26.75;14.25;;;0.30;99.90;;;;;;5113497;28;20107;-77
2021/12/23 00:12:31;;;;;;;27.92;14.60;;;0.30;99.90;;;;;;5113395;28;20030;-79
2021/12/23 00:14:56;;;;;;;26.23;14.40;;;0.30;99.90;;;;;;5113171;28;20118;-77
2021/12/23 00:17:39;;;;;;;23.80;13.05;;;0.40;99.90;;;;;;5113256;28;20102;-79
2021/12/23 00:25:15;;;;;;;28.13;13.77;;;0.40;99.90;;;;;;5073087;28;20028;-79
2021/12/23 00:27:40;;;;;;;23.25;13.45;;;0.30;99.90;;;;;;5072549;28;20020;-79
2021/12/23 00:30:07;;;;;;;26.70;14.32;;;0.40;99.90;;;;;;5072373;28;20067;-79
2021/12/23 00:32:33;;;;;;;23.50;14.13;;;0.40;99.90;;;;;;5072434;28;20526;-79
2021/12/23 00:34:59;;;;;;;27.52;14.00;;;0.40;99.90;;;;;;5054606;28;20096;-77
2021/12/23 00:37:24;;;;;;;25.60;13.48;;;0.40;99.90;;;;;;5072817;28;20028;-77
2021/12/23 00:39:51;;;;;;;26.83;12.88;;;0.40;99.90;;;;;;5072331;28;20066;-78
2021/12/23 00:42:17;;;;;;;28.50;13.98;;;0.40;99.90;;;;;;5072576;28;20055;-77
2021/12/23 00:44:47;;;;;;;31.80;14.70;;;0.40;99.90;;;;;;5072604;28;20563;-78
2021/12/23 00:47:14;;;;;;;29.73;13.60;;;0.40;99.90;;;;;;5072964;28;20107;-79
2021/12/23 00:49:40;;;;;;;25.48;13.50;;;0.40;99.90;;;;;;5072504;28;20087;-77
2021/12/23 00:52:08;;;;;;;25.17;13.65;;;0.40;99.90;;;;;;5054382;28;20367;-79
2021/12/23 00:54:35;;;;;;;27.35;15.13;;;0.40;99.90;;;;;;5072485;28;20493;-77
2021/12/23 00:57:00;;;;;;;22.95;13.55;;;0.40;99.90;;;;;;5072773;28;20020;-79
2021/12/23 00:59:26;;;;;;;27.13;14.73;;;0.50;99.90;;;;;;5054690;28;20071;-77
2021/12/23 01:01:52;;;;;;;27.48;14.73;;;0.50;99.90;;;;;;5103199;28;20426;-79
2021/12/23 01:04:18;;;;;;;25.95;13.25;;;0.50;99.90;;;;;;5095038;28;20024;-77
2021/12/23 01:06:43;;;;;;;25.52;13.52;;;0.50;99.90;;;;;;5112964;28;20028;-77
2021/12/23 01:09:09;;;;;;;25.25;13.80;;;0.50;99.90;;;;;;5112741;28;20070;-77
2021/12/23 01:11:35;;;;;;;23.73;13.73;;;0.50;99.90;;;;;;5112832;28;20045;-77
2021/12/23 01:14:26;;;;;;;26.17;14.38;;;0.50;99.90;;;;;;5112625;28;20052;-77
2021/12/23 01:19:24;;;;;;;25.13;13.15;;;0.50;99.90;;;;;;5110690;28;20107;-77
2021/12/23 01:21:49;;;;;;;26.00;13.98;;;0.50;99.90;;;;;;5092632;28;20522;-77
2021/12/23 01:24:15;;;;;;;25.00;13.73;;;0.50;99.90;;;;;;5092758;28;20066;-77
2021/12/23 01:26:41;;;;;;;24.65;13.38;;;0.50;99.90;;;;;;5074325;28;20058;-77
2021/12/23 01:29:08;;;;;;;28.23;14.88;;;0.40;99.90;;;;;;5092464;28;20035;-79
2021/12/23 01:31:34;;;;;;;29.20;14.45;;;0.40;99.90;;;;;;5092586;28;20020;-79
2021/12/23 01:34:01;;;;;;;26.73;14.77;;;0.50;99.90;;;;;;5092506;28;20376;-79
2021/12/23 01:36:27;;;;;;;28.85;15.27;;;0.50;99.90;;;;;;5092436;28;20013;-79
2021/12/23 01:38:53;;;;;;;32.25;15.30;;;0.50;99.90;;;;;;5092663;28;20035;-79
2021/12/23 01:41:21;;;;;;;29.00;15.27;;;0.50;99.90;;;;;;5092509;28;20032;-79
2021/12/23 01:43:47;;;;;;;27.35;15.32;;;0.40;99.90;;;;;;5092576;28;20028;-79
2021/12/23 01:46:13;;;;;;;25.15;14.02;;;0.50;99.90;;;;;;5094245;28;20073;-79
2021/12/23 01:48:38;;;;;;;25.90;14.70;;;0.40;99.90;;;;;;5096191;28;20028;-79
2021/12/23 01:51:04;;;;;;;28.58;14.90;;;0.50;99.90;;;;;;5096416;28;20447;-79
2021/12/23 01:53:30;;;;;;;29.10;14.88;;;0.40;99.90;;;;;;5078056;28;20032;-78
2021/12/23 01:55:55;;;;;;;31.70;14.80;;;0.40;99.90;;;;;;5096260;28;20062;-78
2021/12/23 01:58:21;;;;;;;28.30;16.05;;;0.40;99.90;;;;;;5096085;28;20074;-78
2021/12/23 02:00:50;;;;;;;31.52;16.17;;;0.40;99.90;;;;;;5096305;28;20378;-78
2021/12/23 02:03:17;;;;;;;28.58;15.85;;;0.40;99.90;;;;;;5096120;28;20038;-79
2021/12/23 02:05:43;;;;;;;28.80;15.32;;;0.30;99.90;;;;;;5096133;28;20020;-79
2021/12/23 02:08:09;;;;;;;27.52;15.52;;;0.40;99.90;;;;;;5095786;28;20051;-79
2021/12/23 02:10:35;;;;;;;29.10;14.57;;;0.40;99.90;;;;;;5095198;28;20466;-79
2021/12/23 02:13:01;;;;;;;26.52;14.48;;;0.40;99.90;;;;;;5095450;28;20056;-78
2021/12/23 02:15:27;;;;;;;25.20;14.48;;;0.40;99.90;;;;;;5095502;28;20502;-79
2021/12/23 02:17:53;;;;;;;28.77;15.20;;;0.40;99.90;;;;;;5095373;28;20027;-78
2021/12/23 02:20:25;;;;;;;26.98;15.57;;;0.30;99.90;;;;;;5095560;28;20485;-79
2021/12/23 02:22:51;;;;;;;35.23;15.60;;;0.30;99.90;;;;;;5095315;28;20407;-79
2021/12/23 02:25:17;;;;;;;27.60;15.02;;;0.30;99.90;;;;;;5077273;28;20064;-79
2021/12/23 02:27:43;;;;;;;30.60;16.38;;;0.10;99.90;;;;;;5077029;28;20394;-78
2021/12/23 02:30:15;;;;;;;33.05;15.85;;;0.10;99.90;;;;;;5077681;28;20036;-78
2021/12/23 02:32:41;;;;;;;31.40;15.80;;;0.10;99.90;;;;;;5095510;28;20073;-78
2021/12/23 02:35:11;;;;;;;30.73;17.05;;;0.10;99.90;;;;;;5095470;28;20099;-78
2021/12/23 02:37:38;;;;;;;27.38;15.85;;;0.00;99.90;;;;;;5094641;28;20036;-79
2021/12/23 02:40:04;;;;;;;29.02;16.20;;;0.10;99.90;;;;;;5075763;28;20020;-78
2021/12/23 02:42:30;;;;;;;27.48;15.38;;;0.00;99.90;;;;;;5076182;28;20462;-78
2021/12/23 02:44:56;;;;;;;27.45;16.42;;;0.00;99.90;;;;;;5095370;28;20034;-78
2021/12/23 02:47:21;;;;;;;30.83;16.20;;;0.00;99.90;;;;;;5095107;28;20030;-78
2021/12/23 02:49:47;;;;;;;27.83;15.05;;;0.00;99.90;;;;;;5076178;28;20359;-79
2021/12/23 02:52:13;;;;;;;31.73;16.15;;;0.00;99.90;;;;;;5094299;28;20020;-78
2021/12/23 02:54:38;;;;;;;29.63;15.45;;;-0.10;99.90;;;;;;5094406;28;20063;-78
2021/12/23 02:57:05;;;;;;;26.70;14.82;;;-0.20;99.90;;;;;;5095170;28;20458;-78
2021/12/23 02:59:30;;;;;;;29.50;15.35;;;-0.20;99.90;;;;;;5076985;28;20024;-78
2021/12/23 03:01:56;;;;;;;30.20;16.30;;;-0.20;99.90;;;;;;5076960;28;20031;-78
2021/12/23 03:04:22;;;;;;;31.85;16.38;;;-0.10;99.90;;;;;;5095101;28;20024;-78
2021/12/23 03:06:47;;;;;;;31.50;16.90;;;-0.20;99.90;;;;;;5094776;28;20059;-78
2021/12/23 03:09:13;;;;;;;33.63;16.48;;;-0.20;99.90;;;;;;5095365;28;20032;-78
2021/12/23 03:11:40;;;;;;;37.65;18.27;;;-0.20;99.90;;;;;;5076690;28;20338;-78
2021/12/23 03:14:06;;;;;;;31.05;16.67;;;-0.20;99.90;;;;;;5076251;28;20044;-78
2021/12/23 03:16:35;;;;;;;30.92;16.92;;;-0.20;99.90;;;;;;5094336;28;20508;-78
2021/12/23 03:19:01;;;;;;;28.38;15.52;;;-0.20;99.90;;;;;;5094784;28;20103;-79
2021/12/23 03:21:26;;;;;;;32.83;16.50;;;-0.20;99.90;;;;;;5077901;28;20432;-78
2021/12/23 03:23:52;;;;;;;29.25;17.17;;;-0.20;99.90;;;;;;5072761;28;20024;-78
2021/12/23 03:26:18;;;;;;;32.90;16.73;;;-0.20;99.90;;;;;;5074477;28;20040;-78
2021/12/23 03:28:43;;;;;;;32.60;16.75;;;-0.20;99.90;;;;;;5074480;28;20037;-78
2021/12/23 03:31:09;;;;;;;29.48;15.80;;;-0.10;99.90;;;;;;5074299;28;20040;-79
2021/12/23 03:33:35;;;;;;;33.42;16.08;;;-0.20;99.90;;;;;;5074160;28;20418;-78
2021/12/23 03:36:01;;;;;;;33.20;17.08;;;-0.20;99.90;;;;;;5074143;28;20021;-78
2021/12/23 03:38:27;;;;;;;31.15;16.88;;;-0.30;99.90;;;;;;5056031;28;20371;-78
2021/12/23 03:40:53;;;;;;;29.02;16.40;;;-0.30;99.90;;;;;;5074132;28;20471;-78
2021/12/23 03:43:19;;;;;;;29.98;15.98;;;-0.20;99.90;;;;;;5074198;28;20108;-78
2021/12/23 03:45:47;;;;;;;30.35;16.25;;;-0.10;99.90;;;;;;5073913;28;20035;-78
2021/12/23 03:48:14;;;;;;;29.90;16.02;;;-0.10;99.90;;;;;;5073834;28;20021;-78
2021/12/23 03:50:41;;;;;;;30.05;15.63;;;-0.10;99.90;;;;;;5073814;28;20403;-78
2021/12/23 03:53:07;;;;;;;32.90;16.30;;;-0.10;99.90;;;;;;5073502;28;20026;-78
2021/12/23 03:55:33;;;;;;;29.27;15.70;;;-0.10;99.90;;;;;;5055503;28;20020;-78
2021/12/23 03:57:59;;;;;;;32.03;15.98;;;-0.10;99.90;;;;;;5073715;28;20069;-78
2021/12/23 04:00:25;;;;;;;34.15;15.88;;;0.00;99.90;;;;;;5073631;28;20025;-79
2021/12/23 04:02:52;;;;;;;33.97;17.73;;;0.00;99.90;;;;;;5055842;28;20025;-78
2021/12/23 04:05:19;;;;;;;33.97;16.25;;;0.00;99.90;;;;;;5073677;28;20040;-79
2021/12/23 04:07:44;;;;;;;30.00;16.15;;;0.10;99.90;;;;;;5073306;28;20025;-78
2021/12/23 04:10:13;;;;;;;30.35;16.65;;;0.10;99.90;;;;;;5055080;28;20528;-78
2021/12/23 04:12:39;;;;;;;31.38;16.92;;;0.10;99.90;;;;;;5073346;28;20028;-78
2021/12/23 04:15:05;;;;;;;31.45;16.38;;;0.10;99.90;;;;;;5073288;28;20049;-78
2021/12/23 04:17:31;;;;;;;35.22;16.50;;;0.20;99.90;;;;;;5073449;28;20473;-79
2021/12/23 04:20:13;;;;;;;33.63;17.05;;;0.20;99.90;;;;;;5073499;28;20032;-79
2021/12/23 04:22:39;;;;;;;30.23;15.98;;;0.20;99.90;;;;;;5073463;28;20020;-79
2021/12/23 04:25:05;;;;;;;30.90;16.17;;;0.20;99.90;;;;;;5073177;28;20473;-79
2021/12/23 04:27:30;;;;;;;29.27;16.02;;;0.30;99.90;;;;;;5073115;28;20020;-77
2021/12/23 04:29:56;;;;;;;29.10;15.80;;;0.20;99.90;;;;;;5055447;28;20090;-78
2021/12/23 04:32:22;;;;;;;33.83;16.75;;;0.20;99.90;;;;;;5073306;28;20039;-79
2021/12/23 04:34:48;;;;;;;30.90;16.75;;;0.20;99.90;;;;;;5073236;28;20024;-79
2021/12/23 04:37:13;;;;;;;30.70;16.27;;;0.20;99.90;;;;;;5073222;28;20387;-79
2021/12/23 04:39:40;;;;;;;34.17;17.33;;;0.10;99.90;;;;;;5073008;28;20140;-79
2021/12/23 04:42:05;;;;;;;34.35;16.77;;;0.10;99.90;;;;;;5055006;28;20430;-79
2021/12/23 04:44:31;;;;;;;37.35;17.67;;;0.10;99.90;;;;;;5073113;28;20036;-79
2021/12/23 04:46:56;;;;;;;34.42;17.00;;;0.10;99.90;;;;;;5073012;28;20036;-79
2021/12/23 04:49:23;;;;;;;37.88;17.95;;;0.10;99.90;;;;;;5054805;28;20032;-79
2021/12/23 04:51:49;;;;;;;34.72;18.85;;;0.10;99.90;;;;;;5073362;28;20084;-79
2021/12/23 04:54:14;;;;;;;31.17;16.50;;;0.10;99.90;;;;;;5073259;28;20103;-79
2021/12/23 04:56:40;;;;;;;36.08;18.75;;;0.10;99.90;;;;;;5072725;28;20100;-79
2021/12/23 04:59:06;;;;;;;36.80;17.20;;;0.10;99.90;;;;;;5072699;28;20098;-79
2021/12/23 05:01:34;;;;;;;36.65;17.08;;;0.10;99.90;;;;;;5072759;28;20021;-79
2021/12/23 05:04:00;;;;;;;35.92;17.65;;;0.10;99.90;;;;;;5073002;28;20470;-78
2021/12/23 05:06:26;;;;;;;34.65;17.73;;;0.10;99.90;;;;;;5054920;28;20050;-79
2021/12/23 05:08:52;;;;;;;39.88;18.58;;;0.10;99.90;;;;;;5054468;28;20425;-79
2021/12/23 05:11:17;;;;;;;38.25;18.80;;;0.10;99.90;;;;;;5072605;28;20040;-79
2021/12/23 05:13:45;;;;;;;35.42;18.83;;;0.00;99.90;;;;;;5072605;28;20036;-79
2021/12/23 05:16:10;;;;;;;35.72;18.13;;;0.10;99.90;;;;;;5054898;28;20119;-79
2021/12/23 05:18:36;;;;;;;36.78;18.92;;;0.00;99.90;;;;;;5073079;28;20049;-79
2021/12/23 05:21:02;;;;;;;37.63;19.20;;;0.10;99.90;;;;;;5074724;28;20043;-79
2021/12/23 05:23:29;;;;;;;40.45;18.50;;;0.10;99.90;;;;;;5077056;28;20535;-79
2021/12/23 05:25:54;;;;;;;39.42;19.30;;;0.10;99.90;;;;;;5077004;28;20048;-79
2021/12/23 05:28:20;;;;;;;35.28;17.63;;;0.00;99.90;;;;;;5076509;28;20071;-78
2021/12/23 05:30:46;;;;;;;43.13;19.52;;;0.00;99.90;;;;;;5076981;28;20543;-78
2021/12/23 05:33:12;;;;;;;36.30;18.98;;;0.00;99.90;;;;;;5076546;28;20021;-78
2021/12/23 05:35:38;;;;;;;37.92;20.50;;;0.00;99.90;;;;;;5058536;28;20352;-79
2021/12/23 05:38:03;;;;;;;43.40;22.13;;;0.00;99.90;;;;;;5058622;28;20036;-78
2021/12/23 05:40:29;;;;;;;41.17;20.60;;;-0.10;99.90;;;;;;5058426;28;20471;-79
2021/12/23 05:42:56;;;;;;;40.65;20.08;;;-0.10;99.90;;;;;;5076558;28;20032;-78
2021/12/23 05:45:22;;;;;;;41.45;20.60;;;-0.10;99.90;;;;;;5076408;28;20039;-79
2021/12/23 05:47:49;;;;;;;40.30;19.92;;;-0.20;99.90;;;;;;5076549;28;20396;-79
2021/12/23 05:50:17;;;;;;;39.15;18.95;;;-0.20;99.90;;;;;;5076252;28;20031;-79
2021/12/23 05:52:43;;;;;;;39.08;20.02;;;-0.10;99.90;;;;;;5076098;28;20431;-79
2021/12/23 05:55:11;;;;;;;41.65;20.10;;;-0.10;99.90;;;;;;5076441;28;20044;-78
2021/12/23 05:57:37;;;;;;;40.00;20.98;;;-0.10;99.90;;;;;;5076315;28;20013;-79
2021/12/23 06:00:10;;;;;;;45.70;21.45;;;-0.20;99.90;;;;;;5057843;28;20024;-78
2021/12/23 06:02:36;;;;;;;44.28;20.92;;;-0.20;99.90;;;;;;5075940;28;20029;-78
2021/12/23 06:05:03;;;;;;;40.78;20.20;;;-0.30;99.90;;;;;;5076204;28;20411;-78
2021/12/23 06:07:29;;;;;;;39.25;20.13;;;-0.20;99.90;;;;;;5075903;28;20032;-79
2021/12/23 06:09:54;;;;;;;43.78;20.85;;;-0.30;99.90;;;;;;5076199;28;20348;-79
2021/12/23 06:12:20;;;;;;;41.10;20.55;;;-0.30;99.90;;;;;;5076095;28;20033;-79
2021/12/23 06:14:45;;;;;;;47.67;22.50;;;-0.20;99.90;;;;;;5075398;28;20558;-78
2021/12/23 06:17:11;;;;;;;40.65;20.65;;;-0.20;99.90;;;;;;5076145;28;20019;-78
2021/12/23 06:19:37;;;;;;;47.33;22.02;;;-0.20;99.90;;;;;;5076827;28;20069;-79
2021/12/23 06:22:03;;;;;;;44.35;21.25;;;-0.20;99.90;;;;;;5077480;28;20114;-79
2021/12/23 06:24:31;;;;;;;45.88;22.42;;;-0.20;99.90;;;;;;5096074;28;20028;-79
2021/12/23 06:26:57;;;;;;;45.47;20.95;;;-0.10;99.90;;;;;;5095917;28;20078;-79
2021/12/23 06:29:23;;;;;;;43.13;21.35;;;-0.20;99.90;;;;;;5077357;28;20024;-78
2021/12/23 06:31:49;;;;;;;43.45;21.45;;;-0.10;99.90;;;;;;5095526;28;20047;-78
2021/12/23 06:34:14;;;;;;;39.20;20.15;;;-0.10;99.90;;;;;;5095311;28;20450;-79
2021/12/23 06:36:45;;;;;;;41.50;20.65;;;-0.10;99.90;;;;;;5096178;28;20028;-78
2021/12/23 06:39:11;;;;;;;44.22;21.60;;;-0.10;99.90;;;;;;5077795;28;20093;-78
2021/12/23 06:41:37;;;;;;;41.75;20.50;;;-0.10;99.90;;;;;;5095689;28;20028;-79
2021/12/23 06:44:02;;;;;;;42.60;20.90;;;-0.10;99.90;;;;;;5095496;28;20389;-79
2021/12/23 06:46:28;;;;;;;48.00;20.30;;;-0.10;99.90;;;;;;5095250;28;20080;-79
2021/12/23 06:48:54;;;;;;;45.05;20.05;;;-0.10;99.90;;;;;;5093290;28;20080;-78
2021/12/23 06:51:20;;;;;;;42.13;21.38;;;-0.10;99.90;;;;;;5073229;28;20040;-79
2021/12/23 06:53:45;;;;;;;46.97;21.55;;;-0.10;99.90;;;;;;5075021;28;20028;-79
2021/12/23 06:56:13;;;;;;;44.55;21.63;;;0.00;99.90;;;;;;5074965;28;20078;-79
2021/12/23 06:58:39;;;;;;;41.70;20.23;;;-0.10;99.90;;;;;;5112855;28;20438;-79
2021/12/23 07:01:05;;;;;;;45.08;21.50;;;0.00;99.90;;;;;;5115039;28;20027;-79
2021/12/23 07:06:30;;;;;;;47.53;22.42;;;0.00;99.90;;;;;;5012622;28;20030;-79
2021/12/23 07:08:56;;;;;;;45.42;21.02;;;0.00;99.90;;;;;;5012656;28;20046;-78
2021/12/23 07:11:22;;;;;;;45.05;22.50;;;0.00;99.90;;;;;;5012447;28;20156;-78
2021/12/23 07:13:49;;;;;;;47.75;21.00;;;0.00;99.90;;;;;;5012472;28;20391;-78
2021/12/23 07:16:14;;;;;;;48.97;22.98;;;0.00;99.90;;;;;;4995715;28;20057;-79
2021/12/23 07:18:40;;;;;;;51.53;22.70;;;0.10;99.90;;;;;;5012466;28;20464;-79
2021/12/23 07:21:05;;;;;;;52.88;23.90;;;0.10;99.90;;;;;;5025932;28;20388;-79
2021/12/23 07:23:31;;;;;;;48.60;22.55;;;0.10;99.90;;;;;;5031168;28;20056;-79
2021/12/23 07:25:57;;;;;;;45.58;22.05;;;0.10;99.90;;;;;;5012352;28;20096;-79
2021/12/23 07:28:22;;;;;;;48.33;23.08;;;0.10;99.90;;;;;;5012216;28;20042;-79
2021/12/23 07:30:48;;;;;;;50.05;23.13;;;0.00;99.90;;;;;;5012103;28;20113;-79
2021/12/23 07:33:13;;;;;;;51.70;23.08;;;0.00;99.90;;;;;;5012356;28;20213;-79
2021/12/23 07:35:40;;;;;;;55.75;24.17;;;0.10;99.90;;;;;;5012343;28;20037;-79
2021/12/23 07:38:06;;;;;;;53.13;23.80;;;0.10;99.90;;;;;;5012296;28;20104;-79
2021/12/23 07:40:31;;;;;;;57.25;23.05;;;0.20;99.90;;;;;;5012037;28;20097;-79
2021/12/23 07:43:08;;;;;;;50.97;23.00;;;0.20;99.90;;;;;;5081841;28;20036;-79
2021/12/23 07:45:34;;;;;;;46.40;22.30;;;0.20;99.90;;;;;;5082667;28;20385;-79
2021/12/23 07:48:00;;;;;;;51.63;22.27;;;0.20;99.90;;;;;;5077452;28;20016;-79
2021/12/23 07:50:26;;;;;;;51.97;23.10;;;0.20;99.90;;;;;;5097447;28;20023;-79
2021/12/23 07:52:52;;;;;;;50.75;23.75;;;0.20;99.90;;;;;;5103344;28;20023;-79
2021/12/23 07:55:18;;;;;;;48.92;23.65;;;0.30;99.90;;;;;;5077337;28;20476;-79
2021/12/23 07:57:44;;;;;;;54.53;24.52;;;0.30;99.90;;;;;;5099412;28;20351;-79
2021/12/23 08:00:10;;;;;;;49.40;24.65;;;0.40;99.90;;;;;;5094115;28;20084;-79
2021/12/23 08:02:35;;;;;;;50.53;23.83;;;0.40;99.90;;;;;;5099490;28;20078;-79
2021/12/23 08:05:01;;;;;;;50.22;24.25;;;0.40;99.90;;;;;;5107417;28;20125;-79
2021/12/23 08:07:27;;;;;;;54.08;23.65;;;0.40;99.90;;;;;;5093832;28;20028;-79
2021/12/23 08:09:52;;;;;;;54.28;23.70;;;0.40;99.90;;;;;;5099222;28;20032;-79
2021/12/23 08:12:18;;;;;;;50.25;23.02;;;0.40;99.90;;;;;;5093942;28;20369;-78
2021/12/23 08:14:43;;;;;;;49.92;23.85;;;0.40;99.90;;;;;;5095580;28;20092;-77
2021/12/23 08:17:09;;;;;;;52.53;24.15;;;0.30;99.90;;;;;;5099297;28;21814;-79
2021/12/23 08:19:34;;;;;;;51.55;22.67;;;0.40;99.90;;;;;;5094609;28;20095;-79
2021/12/23 08:22:00;;;;;;;52.30;23.75;;;0.50;99.90;;;;;;5088663;28;20028;-79
2021/12/23 08:24:26;;;;;;;52.95;23.95;;;0.50;99.90;;;;;;5090252;28;20023;-79
2021/12/23 08:26:52;;;;;;;51.67;23.65;;;0.50;99.90;;;;;;5093203;28;20093;-79
2021/12/23 08:29:19;;;;;;;50.90;23.83;;;0.40;99.90;;;;;;5095385;28;20019;-79
2021/12/23 08:31:55;;;;;;;52.10;24.77;;;0.50;99.90;;;;;;5092806;28;20127;-79
2021/12/23 08:34:22;;;;;;;54.80;25.23;;;0.50;99.90;;;;;;5086646;28;20020;-79
2021/12/23 08:36:49;;;;;;;52.05;24.15;;;0.50;99.90;;;;;;5093252;28;20028;-79
2021/12/23 08:39:16;;;;;;;57.05;25.10;;;0.50;99.90;;;;;;5088569;28;20021;-79
2021/12/23 08:41:41;;;;;;;50.30;24.23;;;0.50;99.90;;;;;;5096255;28;20450;-79
2021/12/23 08:44:07;;;;;;;52.90;24.95;;;0.50;99.90;;;;;;5086293;28;20070;-79
2021/12/23 08:46:32;;;;;;;50.50;24.30;;;0.50;99.90;;;;;;5097642;28;20189;-79
2021/12/23 08:48:58;;;;;;;51.00;24.17;;;0.60;99.90;;;;;;5084168;28;20039;-79
2021/12/23 08:51:24;;;;;;;55.42;25.35;;;0.60;99.90;;;;;;5088563;28;20044;-79
2021/12/23 08:53:50;;;;;;;51.45;23.25;;;0.70;99.90;;;;;;5107871;28;20497;-79
2021/12/23 08:56:15;;;;;;;54.92;25.75;;;0.60;99.90;;;;;;5085445;28;20020;-79
2021/12/23 08:58:42;;;;;;;61.55;25.70;;;0.70;99.90;;;;;;5082087;28;20024;-79
2021/12/23 09:01:08;;;;;;;50.33;24.55;;;0.70;99.90;;;;;;5092605;28;20016;-76
2021/12/23 09:03:33;;;;;;;52.03;24.35;;;0.70;99.90;;;;;;5091840;28;20050;-76
2021/12/23 09:06:01;;;;;;;55.10;24.42;;;0.70;99.90;;;;;;5091977;28;20028;-77
2021/12/23 09:08:27;;;;;;;53.88;25.65;;;0.70;99.90;;;;;;5091982;28;20482;-77
2021/12/23 09:10:55;;;;;;;58.13;24.75;;;0.80;99.90;;;;;;5091943;28;20123;-77
2021/12/23 09:13:21;;;;;;;57.60;25.50;;;0.80;99.90;;;;;;5099812;28;20025;-77
2021/12/23 09:15:46;;;;;;;56.38;26.17;;;0.90;99.90;;;;;;5081224;28;20036;-77
2021/12/23 09:18:12;;;;;;;54.13;24.05;;;0.90;99.90;;;;;;5099849;28;20069;-77
2021/12/23 09:20:38;;;;;;;52.70;24.25;;;1.00;99.90;;;;;;5101044;28;20032;-77
2021/12/23 09:23:07;;;;;;;48.80;23.58;;;1.00;99.90;;;;;;5081848;28;20027;-77
2021/12/23 09:25:33;;;;;;;52.53;24.70;;;0.90;99.90;;;;;;5103889;28;20027;-76
2021/12/23 09:28:27;;;;;;;52.40;23.85;;;1.00;99.90;;;;;;5091735;28;20030;-76
2021/12/23 09:33:38;;;;;;;52.42;24.80;;;1.10;99.90;;;;;;5091668;28;20027;-78
2021/12/23 09:36:05;;;;;;;50.42;24.02;;;1.10;99.90;;;;;;5091666;28;20099;-78
2021/12/23 09:38:30;;;;;;;47.92;22.73;;;1.10;99.90;;;;;;5073486;28;20016;-78
2021/12/23 09:41:01;;;;;;;51.80;22.90;;;1.20;99.90;;;;;;5091447;28;20017;-78
2021/12/23 09:43:28;;;;;;;50.42;23.30;;;1.20;99.90;;;;;;5091559;28;20112;-78
2021/12/23 09:45:54;;;;;;;49.50;24.02;;;1.20;99.90;;;;;;5091922;28;20028;-78
2021/12/23 09:48:21;;;;;;;50.67;24.88;;;1.30;99.90;;;;;;5101341;28;20111;-77
2021/12/23 09:50:49;;;;;;;49.90;24.10;;;1.30;99.90;;;;;;5094783;28;20020;-77
2021/12/23 09:53:21;;;;;;;50.85;23.45;;;1.30;99.90;;;;;;5091148;28;20437;-76
2021/12/23 09:55:46;;;;;;;48.55;24.08;;;1.40;99.90;;;;;;5091270;28;20040;-76
2021/12/23 09:58:12;;;;;;;44.83;22.38;;;1.40;99.90;;;;;;5102310;28;20534;-78
2021/12/23 10:00:45;;;;;;;48.05;22.80;;;1.40;99.90;;;;;;5097274;28;20512;-78
2021/12/23 10:03:12;;;;;;;49.05;22.13;;;1.50;99.90;;;;;;5081105;28;20036;-78
2021/12/23 10:05:38;;;;;;;49.20;22.20;;;1.50;99.90;;;;;;5077548;28;20036;-78
2021/12/23 10:08:06;;;;;;;50.40;23.23;;;1.50;99.90;;;;;;5088100;28;20032;-78
2021/12/23 10:10:39;;;;;;;51.50;22.65;;;1.60;99.90;;;;;;5106672;28;20027;-78
2021/12/23 10:26:58;;;;;;;47.42;22.13;;;1.60;99.90;;;;;;5108997;28;20377;-78
2021/12/23 10:32:58;;;;;;;50.28;22.83;;;1.60;99.90;;;;;;5112383;28;20500;-77
2021/12/23 10:38:18;;;;;;;49.40;23.13;;;1.70;99.90;;;;;;5095572;28;20069;-76
2021/12/23 10:40:50;;;;;;;47.28;22.30;;;1.70;99.90;;;;;;5094891;28;20020;-78
2021/12/23 10:43:41;;;;;;;48.90;23.90;;;1.70;99.90;;;;;;5076866;28;20032;-75
2021/12/23 10:46:14;;;;;;;45.60;22.40;;;1.80;99.90;;;;;;5094680;28;20024;-77
2021/12/23 10:52:18;;;;;;;48.45;23.20;;;1.80;99.90;;;;;;5069412;28;20446;-79
2021/12/23 11:00:38;;;;;;;45.30;22.27;;;2.00;99.90;;;;;;5033215;28;20487;-76
2021/12/23 11:06:17;;;;;;;46.25;21.92;;;1.90;99.90;;;;;;5032310;28;20029;-76
2021/12/23 11:39:31;;;;;;;48.40;23.50;;;2.50;99.90;;;;;;5011458;28;20029;-78
2021/12/23 11:42:15;;;;;;;44.03;20.95;;;2.60;99.90;;;;;;4994824;28;20022;-78
2021/12/23 11:44:44;;;;;;;44.72;21.23;;;2.70;99.90;;;;;;4995074;28;20060;-79
2021/12/23 11:47:15;;;;;;;43.47;22.10;;;2.80;99.90;;;;;;4994849;28;20140;-78
2021/12/23 11:49:44;;;;;;;44.13;20.65;;;2.80;99.90;;;;;;4997174;28;20440;-78
2021/12/23 11:52:12;;;;;;;44.58;20.67;;;2.90;99.90;;;;;;5006465;28;20087;-78
2021/12/23 11:54:43;;;;;;;46.05;21.20;;;2.80;99.90;;;;;;5030270;28;20034;-75
2021/12/23 11:57:16;;;;;;;44.47;19.88;;;2.90;99.90;;;;;;5030486;28;20415;-76
2021/12/23 11:59:58;;;;;;;46.80;21.65;;;2.90;99.90;;;;;;5077835;28;20585;-75
2021/12/23 12:02:24;;;;;;;48.70;22.23;;;2.90;99.90;;;;;;5072598;28;20028;-75
2021/12/23 12:05:04;;;;;;;43.85;21.40;;;2.90;99.90;;;;;;5080326;28;20488;-76
2021/12/23 12:07:30;;;;;;;48.75;20.73;;;3.00;99.90;;;;;;5078744;28;20067;-75
2021/12/23 12:10:06;;;;;;;43.17;21.55;;;3.00;99.90;;;;;;5106929;28;20406;-76
2021/12/23 12:12:34;;;;;;;46.25;21.95;;;3.00;99.90;;;;;;5112843;28;20034;-76
2021/12/23 12:15:01;;;;;;;50.20;22.85;;;3.00;99.90;;;;;;5112405;28;20516;-76
2021/12/23 12:17:26;;;;;;;48.80;21.95;;;3.20;99.90;;;;;;5112999;28;20096;-76
2021/12/23 12:20:09;;;;;;;48.75;21.85;;;3.10;99.90;;;;;;5105198;28;20118;-76
2021/12/23 12:22:55;;;;;;;46.17;21.48;;;3.00;99.90;;;;;;5072354;28;20013;-76
2021/12/23 12:25:24;;;;;;;45.65;21.27;;;3.10;99.90;;;;;;5073233;28;20028;-77
2021/12/23 12:27:55;;;;;;;48.00;21.45;;;3.20;99.90;;;;;;5101197;28;20767;-76
2021/12/23 12:30:38;;;;;;;43.87;20.90;;;3.40;99.90;;;;;;5091189;28;20019;-76
2021/12/23 12:33:33;;;;;;;46.88;22.67;;;3.50;99.90;;;;;;5112623;28;20730;-75
2021/12/23 12:36:04;;;;;;;45.83;22.27;;;3.70;99.90;;;;;;5088429;28;20024;-77
2021/12/23 12:38:31;;;;;;;47.53;21.83;;;3.80;99.90;;;;;;5092203;28;20032;-76
2021/12/23 12:41:06;;;;;;;46.60;21.50;;;3.80;99.90;;;;;;5092278;28;20024;-76
2021/12/23 12:43:39;;;;;;;42.28;21.27;;;3.60;99.90;;;;;;5092060;28;20412;-76
2021/12/23 12:46:05;;;;;;;40.83;20.58;;;3.60;99.90;;;;;;5092070;28;20024;-76
2021/12/23 12:48:56;;;;;;;44.65;20.20;;;3.50;99.90;;;;;;5092204;28;20032;-76
2021/12/23 12:51:26;;;;;;;48.30;21.98;;;3.40;99.90;;;;;;5063733;28;20115;-76
2021/12/23 12:54:03;;;;;;;46.20;21.02;;;3.50;99.90;;;;;;5073631;28;20054;-76
2021/12/23 12:56:43;;;;;;;45.22;20.85;;;3.50;99.90;;;;;;5091886;28;20024;-75
2021/12/23 12:59:09;;;;;;;44.95;21.90;;;3.50;99.90;;;;;;5091732;28;20070;-74
2021/12/23 13:01:48;;;;;;;41.83;20.98;;;3.50;99.90;;;;;;5084998;28;20315;-76
2021/12/23 13:04:36;;;;;;;44.47;22.15;;;3.60;99.90;;;;;;5083086;28;20358;-75
2021/12/23 13:07:15;;;;;;;43.03;20.17;;;3.50;99.90;;;;;;5097028;28;20029;-75
2021/12/23 13:10:09;;;;;;;47.20;22.10;;;3.50;99.90;;;;;;5100777;28;20505;-75
2021/12/23 13:12:56;;;;;;;50.33;22.13;;;3.50;99.90;;;;;;5074493;28;20082;-75
2021/12/23 13:15:29;;;;;;;45.47;21.55;;;3.50;99.90;;;;;;5091493;28;20114;-74
2021/12/23 13:18:18;;;;;;;45.97;20.90;;;3.40;99.90;;;;;;5091616;28;20041;-74
2021/12/23 13:20:46;;;;;;;46.20;22.42;;;3.40;99.90;;;;;;5091442;28;20040;-73
2021/12/23 13:23:13;;;;;;;44.35;21.52;;;3.50;99.90;;;;;;5091282;28;20024;-74
2021/12/23 13:26:02;;;;;;;45.17;21.52;;;3.50;99.90;;;;;;5091583;28;20090;-74
2021/12/23 13:28:31;;;;;;;47.10;22.05;;;3.60;99.90;;;;;;5072571;28;20031;-74
2021/12/23 13:30:57;;;;;;;40.92;20.77;;;3.60;99.90;;;;;;5073415;28;20112;-74
2021/12/23 13:33:23;;;;;;;45.30;21.65;;;3.50;99.90;;;;;;5091480;28;20063;-74
2021/12/23 13:35:48;;;;;;;46.00;21.38;;;3.60;99.90;;;;;;5091412;28;20040;-73
2021/12/23 13:38:32;;;;;;;46.15;21.73;;;3.60;99.90;;;;;;5073218;28;20044;-74
2021/12/23 13:41:20;;;;;;;44.10;21.65;;;3.60;99.90;;;;;;5091455;28;20412;-73
2021/12/23 13:43:46;;;;;;;49.25;22.90;;;3.60;99.90;;;;;;5077082;28;20028;-73
2021/12/23 13:46:12;;;;;;;47.70;22.08;;;3.60;99.90;;;;;;5095430;28;20522;-74
2021/12/23 13:48:56;;;;;;;48.97;23.15;;;3.70;99.90;;;;;;5095390;28;20107;-74
2021/12/23 13:51:24;;;;;;;50.45;22.25;;;3.70;99.90;;;;;;5073475;28;20028;-75
2021/12/23 13:54:18;;;;;;;50.28;21.92;;;3.70;99.90;;;;;;5074718;28;20142;-74
2021/12/23 13:56:49;;;;;;;48.03;23.95;;;3.70;99.90;;;;;;5095657;28;20688;-75